28 maja 2022

Czas Kod Pogoda Temp. Widoczność Sufit Wiatr METAR/SPECI
5:00 am
V
64 °F 6¼ mi+ - 320° 320° 5 kt METAR LFMU 280300Z AUTO 32005KT CAVOK 18/12 Q//// NOSIG
4:30 am
V
63 °F 6¼ mi+ - 320° 320° 6 kt METAR LFMU 280230Z AUTO 32006KT CAVOK 17/12 Q////
4:00 am
V
64 °F 6¼ mi+ - Var Var 2 kt METAR LFMU 280200Z AUTO VRB02KT CAVOK 18/12 Q////
3:30 am
V
66 °F 6¼ mi+ - 230° 230° 3 kt METAR LFMU 280130Z AUTO 23003KT CAVOK 19/13 Q////
3:00 am
V
66 °F 6¼ mi+ - 260° 260° 4 kt METAR LFMU 280100Z AUTO 26004KT CAVOK 19/13 Q////
2:30 am
V
66 °F 6¼ mi+ - 270° 270° 5 kt METAR LFMU 280030Z AUTO 27005KT CAVOK 19/13 Q////
2:00 am
V
68 °F 6¼ mi+ - 280° 280° 9 kt METAR LFMU 280000Z AUTO 28009KT CAVOK 20/13 Q////
1:30 am
V
70 °F 6¼ mi+ - 280° 280° 11 kt METAR LFMU 272330Z AUTO 28011KT CAVOK 21/13 Q////
1:00 am
V
70 °F 6¼ mi+ - 280° 280° 11 kt METAR LFMU 272300Z AUTO 28011KT CAVOK 21/13 Q////
12:30 am
V
72 °F 6¼ mi+ - 280° 280° 10 kt METAR LFMU 272230Z AUTO 28010KT CAVOK 22/13 Q////
12:00 am
V
72 °F 6¼ mi+ - 280° 280° 10 kt METAR LFMU 272200Z AUTO 28010KT CAVOK 22/13 Q////

27 maja 2022

Czas Kod Pogoda Temp. Widoczność Sufit Wiatr METAR/SPECI
11:30 pm
V
72 °F 6¼ mi+ - 270° 270° 9 kt METAR LFMU 272130Z AUTO 27009KT CAVOK 22/13 Q////
11:00 pm
V
73 °F 6¼ mi+ - 270° 270° 9 kt METAR LFMU 272100Z AUTO 27009KT CAVOK 23/14 Q////
10:30 pm
V
73 °F 6¼ mi+ - 280° 280° 12 kt METAR LFMU 272030Z AUTO 28012KT CAVOK 23/14 Q//// NOSIG
10:00 pm
V
75 °F 6¼ mi+ - 280° 280° 12 kt METAR LFMU 272000Z AUTO 28012KT CAVOK 24/14 Q//// NOSIG
9:30 pm
V
77 °F 6¼ mi+ - 270° 270° 11 kt METAR LFMU 271930Z AUTO 27011KT CAVOK 25/14 Q//// NOSIG
9:00 pm
V
79 °F 6¼ mi+ - 270° 270° 9 kt METAR LFMU 271900Z AUTO 27009KT CAVOK 26/13 Q//// TEMPO 30015G25KT
8:30 pm
V
81 °F 6¼ mi+ - 290° 290° 14 kt METAR LFMU 271830Z AUTO 29014KT CAVOK 27/13 Q//// TEMPO 30015G25KT
8:00 pm
V
82 °F 6¼ mi+ - 290° 290° 16 kt METAR LFMU 271800Z AUTO 29016KT CAVOK 28/13 Q//// TEMPO 30015G25KT
7:30 pm
V
84 °F 6¼ mi+ - 300° 300° 16 kt METAR LFMU 271730Z AUTO 30016KT CAVOK 29/13 Q//// TEMPO 30015G25KT
7:00 pm
V
84 °F 6¼ mi+ - 300° 300° 15 kt METAR LFMU 271700Z AUTO 30015KT CAVOK 29/13 Q//// TEMPO 30015G25KT
6:30 pm
V
86 °F 6¼ mi+ - 300° 300° 16 kt METAR LFMU 271630Z AUTO 30016KT CAVOK 30/13 Q//// TEMPO 30015G25KT
6:00 pm
V
86 °F 6¼ mi+ - 290° 290° 15 kt METAR LFMU 271600Z AUTO 29015KT CAVOK 30/13 Q//// TEMPO 30015G25KT
5:30 pm
V
88 °F 6¼ mi+ - 290° 290° 11 kt METAR LFMU 271530Z AUTO 29011KT 250V320 CAVOK 31/13 Q//// TEMPO 30015G25KT
5:00 pm
V
88 °F 6¼ mi+ - 300° 300° 9 kt METAR LFMU 271500Z AUTO 30009KT 270V350 CAVOK 31/12 Q//// TEMPO 30015G25KT
4:30 pm
V
86 °F 6¼ mi+ - 310° 310° 11 kt METAR LFMU 271430Z AUTO 31011KT 280V350 CAVOK 30/12 Q//// TEMPO 30015G25KT
4:00 pm
V
86 °F 6¼ mi+ - 310° 310° 11 kt METAR LFMU 271400Z AUTO 31011KT 260V350 CAVOK 30/12 Q//// NOSIG
3:30 pm
V
86 °F 6¼ mi+ - 310° 310° 11 kt METAR LFMU 271330Z AUTO 31011KT 280V010 CAVOK 30/12 Q//// NOSIG
3:00 pm
V
84 °F 6¼ mi+ - 300° 300° 14 kt METAR LFMU 271300Z AUTO 30014KT 270V330 CAVOK 29/13 Q//// NOSIG
2:30 pm
V
84 °F 6¼ mi+ - 310° 310° 12 kt METAR LFMU 271230Z AUTO 31012KT 280V350 CAVOK 29/12 Q//// NOSIG
2:00 pm
V
82 °F 6¼ mi+ - 310° 310° 14 kt METAR LFMU 271200Z AUTO 31014KT 270V340 CAVOK 28/11 Q//// NOSIG
1:30 pm
V
82 °F 6¼ mi+ - 320° 320° 12 kt METAR LFMU 271130Z AUTO 32012KT 280V350 CAVOK 28/12 Q//// NOSIG
1:00 pm
V
79 °F 6¼ mi+ - 320° 320° 14 kt METAR LFMU 271100Z AUTO 32014KT CAVOK 26/12 Q//// NOSIG
12:30 pm
V
79 °F 6¼ mi+ - 330° 330° 13 kt METAR LFMU 271030Z AUTO 33013KT CAVOK 26/12 Q//// NOSIG
12:00 pm
V
77 °F 6¼ mi+ - 330° 330° 11 kt METAR LFMU 271000Z AUTO 33011KT 290V360 CAVOK 25/12 Q//// NOSIG
11:30 am
V
75 °F 6¼ mi+ - 310° 310° 10 kt METAR LFMU 270930Z AUTO 31010KT 290V360 CAVOK 24/12 Q//// NOSIG
11:00 am
V
72 °F 6¼ mi+ - 280° 280° 10 kt METAR LFMU 270900Z AUTO 28010KT CAVOK 22/13 Q//// NOSIG
10:30 am
V
70 °F 6¼ mi+ - 270° 270° 10 kt METAR LFMU 270830Z AUTO 27010KT CAVOK 21/13 Q//// NOSIG
10:00 am
V
70 °F 6¼ mi+ - 280° 280° 10 kt METAR LFMU 270800Z AUTO 28010KT CAVOK 21/12 Q//// NOSIG
9:30 am
V
68 °F 6¼ mi+ - 280° 280° 11 kt METAR LFMU 270730Z AUTO 28011KT CAVOK 20/12 Q//// NOSIG
9:00 am
V
66 °F 6¼ mi+ - 280° 280° 12 kt METAR LFMU 270700Z AUTO 28012KT CAVOK 19/12 Q//// NOSIG
8:30 am
V
64 °F 6¼ mi+ - 280° 280° 10 kt METAR LFMU 270630Z AUTO 28010KT CAVOK 18/12 Q//// NOSIG
8:00 am
V
63 °F 6¼ mi+ - 280° 280° 9 kt METAR LFMU 270600Z AUTO 28009KT CAVOK 17/11 Q//// NOSIG
7:30 am
V
63 °F 6¼ mi+ - 280° 280° 8 kt METAR LFMU 270530Z AUTO 28008KT CAVOK 17/11 Q//// NOSIG
7:00 am
V
61 °F 6¼ mi+ - 290° 290° 8 kt METAR LFMU 270500Z AUTO 29008KT CAVOK 16/11 Q//// NOSIG
6:30 am
V
61 °F 6¼ mi+ - 280° 280° 10 kt METAR LFMU 270430Z AUTO 28010KT CAVOK 16/11 Q//// NOSIG
6:00 am
V
61 °F 6¼ mi+ - 280° 280° 11 kt METAR LFMU 270400Z AUTO 28011KT CAVOK 16/11 Q//// NOSIG
5:30 am
V
61 °F 6¼ mi+ - 280° 280° 10 kt METAR LFMU 270330Z AUTO 28010KT CAVOK 16/11 Q//// NOSIG
5:00 am
V
61 °F 6¼ mi+ - 290° 290° 11 kt METAR LFMU 270300Z AUTO 29011KT CAVOK 16/11 Q//// NOSIG
4:30 am
V
63 °F 6¼ mi+ - 290° 290° 10 kt METAR LFMU 270230Z AUTO 29010KT CAVOK 17/11 Q////
4:00 am
V
61 °F 6¼ mi+ - 290° 290° 6 kt METAR LFMU 270200Z AUTO 29006KT CAVOK 16/12 Q////
3:30 am
V
59 °F 6¼ mi+ - 280° 280° 7 kt METAR LFMU 270130Z AUTO 28007KT CAVOK 15/11 Q////
3:00 am
V
59 °F 6¼ mi+ - 290° 290° 5 kt METAR LFMU 270100Z AUTO 29005KT CAVOK 15/11 Q////
2:30 am
V
59 °F 6¼ mi+ - 300° 300° 7 kt METAR LFMU 270030Z AUTO 30007KT CAVOK 15/11 Q////
2:00 am
V
61 °F 6¼ mi+ - 280° 280° 4 kt METAR LFMU 270000Z AUTO 28004KT CAVOK 16/11 Q////
1:30 am
V
63 °F 6¼ mi+ - 300° 300° 6 kt METAR LFMU 262330Z AUTO 30006KT CAVOK 17/11 Q////
1:00 am
V
61 °F 6¼ mi+ - 300° 300° 7 kt METAR LFMU 262300Z AUTO 30007KT CAVOK 16/11 Q////
12:30 am
V
64 °F 6¼ mi+ - 310° 310° 9 kt METAR LFMU 262230Z AUTO 31009KT CAVOK 18/12 Q////
12:00 am
V
64 °F 6¼ mi+ - 300° 300° 7 kt METAR LFMU 262200Z AUTO 30007KT CAVOK 18/11 Q////

26 maja 2022

Czas Kod Pogoda Temp. Widoczność Sufit Wiatr METAR/SPECI
11:30 pm
V
66 °F 6¼ mi+ - 280° 280° 9 kt METAR LFMU 262130Z AUTO 28009KT CAVOK 19/11 Q////
11:00 pm
V
66 °F 6¼ mi+ - 270° 270° 9 kt METAR LFMU 262100Z AUTO 27009KT CAVOK 19/11 Q////
10:30 pm
V
68 °F 6¼ mi+ - 280° 280° 12 kt METAR LFMU 262030Z AUTO 28012KT CAVOK 20/11 Q//// NOSIG
10:00 pm
V
68 °F 6¼ mi+ - 290° 290° 13 kt METAR LFMU 262000Z AUTO 29013KT CAVOK 20/11 Q//// NOSIG
9:30 pm
V
70 °F 6¼ mi+ - 280° 280° 14 kt METAR LFMU 261930Z AUTO 28014KT CAVOK 21/11 Q//// NOSIG
9:00 pm
V
72 °F 6¼ mi+ - 290° 290° 14 kt METAR LFMU 261900Z AUTO 29014KT CAVOK 22/11 Q//// NOSIG
8:30 pm
V
73 °F 6¼ mi+ - 300° 300° 15 kt METAR LFMU 261830Z AUTO 30015KT CAVOK 23/11 Q//// NOSIG
8:00 pm
V
73 °F 6¼ mi+ - 300° 300° 19 kt METAR LFMU 261800Z AUTO 30019KT CAVOK 23/11 Q//// NOSIG
7:30 pm
V
75 °F 6¼ mi+ - 300° 300° 19 kt METAR LFMU 261730Z AUTO 30019KT CAVOK 24/11 Q//// NOSIG
7:00 pm
V
77 °F 6¼ mi+ - 290° 290° 18 kt METAR LFMU 261700Z AUTO 29018KT CAVOK 25/11 Q//// TEMPO 31015G25KT
6:30 pm
V
79 °F 6¼ mi+ - 300° 300° 18 kt METAR LFMU 261630Z AUTO 30018KT CAVOK 26/11 Q//// TEMPO 31015G25KT
6:00 pm
V
79 °F 6¼ mi+ - 290° 290° 19 kt METAR LFMU 261600Z AUTO 29019KT CAVOK 26/11 Q//// BECMG 31015G25KT
5:30 pm
V
79 °F 6¼ mi+ - 290° 290° 20 kt METAR LFMU 261530Z AUTO 29020KT CAVOK 26/11 Q//// BECMG 31015G25KT
5:00 pm
V
79 °F 6¼ mi+ - 320° 320° 17 - 27 kt METAR LFMU 261500Z AUTO 32017G27KT 290V360 CAVOK 26/10 Q//// NOSIG
4:30 pm
V
81 °F 6¼ mi+ - 330° 330° 18 kt METAR LFMU 261430Z AUTO 33018KT 290V350 CAVOK 27/11 Q//// BECMG 31015G25KT
4:00 pm
V
81 °F 6¼ mi+ - 310° 310° 18 kt METAR LFMU 261400Z AUTO 31018KT CAVOK 27/11 Q//// BECMG 32015G25KT
3:30 pm
V
79 °F 6¼ mi+ - 330° 330° 17 kt METAR LFMU 261330Z AUTO 33017KT CAVOK 26/09 Q//// BECMG 32015G25KT
3:00 pm
V
79 °F 6¼ mi+ - 310° 310° 18 kt METAR LFMU 261300Z AUTO 31018KT CAVOK 26/10 Q//// BECMG 32015G25KT
2:30 pm
V
79 °F 6¼ mi+ - 330° 330° 16 kt METAR LFMU 261230Z AUTO 33016KT CAVOK 26/10 Q//// BECMG 32015G25KT
2:00 pm
V
79 °F 6¼ mi+ - 330° 330° 16 kt METAR LFMU 261200Z AUTO 33016KT 290V360 CAVOK 26/10 Q//// BECMG 32015G25KT
1:30 pm
V
77 °F 6¼ mi+ - 320° 320° 15 kt METAR LFMU 261130Z AUTO 32015KT CAVOK 25/09 Q//// BECMG 32015G25KT
1:00 pm
V
77 °F 6¼ mi+ - 310° 310° 17 kt METAR LFMU 261100Z AUTO 31017KT CAVOK 25/09 Q//// BECMG 32015G25KT
12:30 pm
V
75 °F 6¼ mi+ - 330° 330° 14 kt METAR LFMU 261030Z AUTO 33014KT CAVOK 24/08 Q//// BECMG 32015G25KT
12:00 pm
V
75 °F 6¼ mi+ - 330° 330° 16 kt METAR LFMU 261000Z AUTO 33016KT CAVOK 24/08 Q//// BECMG 32015G25KT
11:30 am
V
73 °F 6¼ mi+ - 330° 330° 17 kt METAR LFMU 260930Z AUTO 33017KT 290V350 CAVOK 23/07 Q//// BECMG 32015G25KT
11:00 am
V
73 °F 6¼ mi+ - 330° 330° 19 kt METAR LFMU 260900Z AUTO 33019KT CAVOK 23/07 Q//// BECMG 32015G25KT
10:30 am
V
72 °F 6¼ mi+ - 320° 320° 16 kt METAR LFMU 260830Z AUTO 32016KT 290V350 CAVOK 22/08 Q1023 BECMG 32018G28KT
10:00 am
V
70 °F 6¼ mi+ - 320° 320° 14 kt METAR LFMU 260800Z AUTO 32014KT 270V350 CAVOK 21/08 Q1023 BECMG 32018G28KT
9:30 am
V
68 °F 6¼ mi+ - 280° 280° 14 kt METAR LFMU 260730Z AUTO 28014KT CAVOK 20/10 Q1023 BECMG 32018G28KT
9:00 am
V
66 °F 6¼ mi+ - 280° 280° 13 kt METAR LFMU 260700Z AUTO 28013KT CAVOK 19/09 Q1023 BECMG 32018G28KT
8:30 am
V
64 °F 6¼ mi+ - 290° 290° 13 kt METAR LFMU 260630Z AUTO 29013KT CAVOK 18/09 Q1023 BECMG 32018G28KT
8:00 am
V
63 °F 6¼ mi+ - 280° 280° 14 kt METAR LFMU 260600Z AUTO 28014KT CAVOK 17/09 Q1023 BECMG 32018G28KT
7:30 am
V
61 °F 6¼ mi+ - 280° 280° 14 kt METAR LFMU 260530Z AUTO 28014KT CAVOK 16/09 Q1022 BECMG 32018G28KT
7:00 am
V
59 °F 6¼ mi+ - 280° 280° 14 kt METAR LFMU 260500Z AUTO 28014KT CAVOK 15/09 Q1022 NOSIG
6:30 am
V
59 °F 6¼ mi+ - 280° 280° 11 kt METAR LFMU 260430Z AUTO 28011KT CAVOK 15/09 Q1022 NOSIG
6:00 am
V
59 °F 6¼ mi+ - 280° 280° 11 kt METAR LFMU 260400Z AUTO 28011KT CAVOK 15/08 Q1022 NOSIG
5:30 am
V
61 °F 6¼ mi+ - 280° 280° 10 kt METAR LFMU 260330Z AUTO 28010KT CAVOK 16/09 Q1022 NOSIG
5:00 am
V
61 °F 6¼ mi+ - 280° 280° 9 kt METAR LFMU 260300Z AUTO 28009KT CAVOK 16/08 Q1022 NOSIG
4:30 am
V
61 °F 6¼ mi+ - 280° 280° 9 kt METAR LFMU 260230Z AUTO 28009KT CAVOK 16/08 Q1022
4:00 am
V
61 °F 6¼ mi+ - 290° 290° 10 kt METAR LFMU 260200Z AUTO 29010KT CAVOK 16/08 Q1022
3:30 am
V
61 °F 6¼ mi+ - 280° 280° 10 kt METAR LFMU 260130Z AUTO 28010KT CAVOK 16/08 Q1022
3:00 am
V
61 °F 6¼ mi+ - 270° 270° 9 kt METAR LFMU 260100Z AUTO 27009KT CAVOK 16/08 Q1022
2:30 am
V
63 °F 6¼ mi+ - 300° 300° 11 kt METAR LFMU 260030Z AUTO 30011KT CAVOK 17/07 Q1022
2:00 am
V
63 °F 6¼ mi+ - 300° 300° 11 kt METAR LFMU 260000Z AUTO 30011KT CAVOK 17/07 Q1022
1:30 am
V
63 °F 6¼ mi+ - 290° 290° 11 kt METAR LFMU 252330Z AUTO 29011KT CAVOK 17/07 Q1022
1:00 am
V
64 °F 6¼ mi+ - 290° 290° 13 kt METAR LFMU 252300Z AUTO 29013KT CAVOK 18/07 Q1022
12:30 am
V
66 °F 6¼ mi+ - 300° 300° 14 kt METAR LFMU 252230Z AUTO 30014KT CAVOK 19/07 Q1022
12:00 am
V
66 °F 6¼ mi+ - 300° 300° 12 kt METAR LFMU 252200Z AUTO 30012KT CAVOK 19/07 Q1022

25 maja 2022

Czas Kod Pogoda Temp. Widoczność Sufit Wiatr METAR/SPECI
11:30 pm
V
66 °F 6¼ mi+ - 300° 300° 12 kt METAR LFMU 252130Z AUTO 30012KT CAVOK 19/07 Q1021
11:00 pm
V
68 °F 6¼ mi+ - 300° 300° 15 kt METAR LFMU 252100Z AUTO 30015KT CAVOK 20/07 Q1021
10:30 pm
V
68 °F 6¼ mi+ - 310° 310° 16 kt METAR LFMU 252030Z AUTO 31016KT CAVOK 20/07 Q1020 NOSIG
10:00 pm
V
70 °F 6¼ mi+ - 320° 320° 16 kt METAR LFMU 252000Z AUTO 32016KT CAVOK 21/07 Q1020 NOSIG
9:30 pm
V
70 °F 6¼ mi+ - 310° 310° 14 kt METAR LFMU 251930Z AUTO 31014KT CAVOK 21/07 Q1019 NOSIG
Starsze dane

Pobierz naszą aplikację

Łatwy dostęp do całej pogody lotniczej na telefonie komórkowym i tablecie.
Z wieloma funkcjami niedostępnymi na stronie internetowej, takimi jak wsparcie offline i osobista lista lotnisk.

My i osoby trzecie śledzimy twoje zachowanie w internecie na naszej stronie za pomocą plików cookie. Jeśli kontynuujesz, zakładamy, że zgadzasz się z naszą polityką plików cookie. Dowiedz się więcej